Time;durP1;ratioP1;P1;durP2;ratioP2;P2;SDS_P1;SDS_P2;PMS_P1;PMS_P2;Temp;Humidity;BMP_temperature;BMP_pressure;BME280_temperature;BME280_humidity;BME280_pressure;Samples;Min_cycle;Max_cycle;Signal;HPM_P1;HPM_P2
2024/01/13 00:02:03;;;;;;;18.00;12.30;;;;;;;;;;5018034;28;20690;-57
2024/01/13 00:04:29;;;;;;;15.57;12.17;;;;;;;;;;5025608;28;20653;-57
2024/01/13 00:06:55;;;;;;;18.00;13.07;;;;;;;;;;5018636;28;20190;-57
2024/01/13 00:09:21;;;;;;;19.13;13.67;;;;;;;;;;5024963;28;20178;-57
2024/01/13 00:11:47;;;;;;;16.80;13.53;;;;;;;;;;5015572;28;20662;-58
2024/01/13 00:14:13;;;;;;;18.67;13.83;;;;;;;;;;5024546;28;20482;-57
2024/01/13 00:16:39;;;;;;;15.80;12.50;;;;;;;;;;5017807;28;20285;-54
2024/01/13 00:19:05;;;;;;;21.03;13.40;;;;;;;;;;5024839;28;20179;-57
2024/01/13 00:21:31;;;;;;;17.77;12.70;;;;;;;;;;5023537;28;20436;-57
2024/01/13 00:23:57;;;;;;;15.43;12.00;;;;;;;;;;5023834;28;20181;-57
2024/01/13 00:26:23;;;;;;;18.30;13.27;;;;;;;;;;5025807;28;20261;-57
2024/01/13 00:28:49;;;;;;;16.53;13.10;;;;;;;;;;5024603;28;20368;-57
2024/01/13 00:31:15;;;;;;;20.67;13.73;;;;;;;;;;5023496;28;20538;-57
2024/01/13 00:33:43;;;;;;;19.40;12.63;;;;;;;;;;5024587;28;20220;-57
2024/01/13 00:36:10;;;;;;;19.57;13.40;;;;;;;;;;5024929;28;20194;-56
2024/01/13 00:38:36;;;;;;;18.43;14.43;;;;;;;;;;5021117;28;20692;-57
2024/01/13 00:41:03;;;;;;;18.83;13.80;;;;;;;;;;5021143;28;20179;-56
2024/01/13 00:43:29;;;;;;;19.13;12.53;;;;;;;;;;5013331;28;20205;-56
2024/01/13 00:45:55;;;;;;;16.93;12.17;;;;;;;;;;5018224;28;20574;-57
2024/01/13 00:48:21;;;;;;;17.80;13.47;;;;;;;;;;5015288;28;20277;-54
2024/01/13 00:50:47;;;;;;;21.43;13.73;;;;;;;;;;5024827;28;20269;-57
2024/01/13 00:53:13;;;;;;;17.77;13.50;;;;;;;;;;5022315;28;20210;-58
2024/01/13 00:55:39;;;;;;;15.50;11.93;;;;;;;;;;5025316;28;20182;-56
2024/01/13 00:58:05;;;;;;;18.90;13.73;;;;;;;;;;5023960;28;20177;-53
2024/01/13 01:00:31;;;;;;;17.37;12.77;;;;;;;;;;5022069;28;20183;-53
2024/01/13 01:02:57;;;;;;;20.20;13.47;;;;;;;;;;5017862;28;20254;-53
2024/01/13 01:05:23;;;;;;;20.77;13.90;;;;;;;;;;5019306;28;20181;-53
2024/01/13 01:07:49;;;;;;;19.50;13.43;;;;;;;;;;5026026;28;20208;-53
2024/01/13 01:10:15;;;;;;;18.67;13.07;;;;;;;;;;5019079;28;20650;-53
2024/01/13 01:12:41;;;;;;;20.30;14.03;;;;;;;;;;5020814;28;20293;-53
2024/01/13 01:15:07;;;;;;;19.30;13.87;;;;;;;;;;5018127;28;20182;-53
2024/01/13 01:17:33;;;;;;;16.83;13.07;;;;;;;;;;5020243;28;20204;-53
2024/01/13 01:19:59;;;;;;;20.40;12.93;;;;;;;;;;5020684;28;20182;-53
2024/01/13 01:22:25;;;;;;;18.07;13.93;;;;;;;;;;5022611;28;20189;-53
2024/01/13 01:24:51;;;;;;;18.27;13.63;;;;;;;;;;5025534;28;20177;-53
2024/01/13 01:27:17;;;;;;;20.40;13.83;;;;;;;;;;5020461;28;20657;-53
2024/01/13 01:29:43;;;;;;;18.17;12.80;;;;;;;;;;5024629;28;20205;-53
2024/01/13 01:32:09;;;;;;;20.07;13.00;;;;;;;;;;5026774;28;20934;-53
2024/01/13 01:34:35;;;;;;;21.17;14.70;;;;;;;;;;5029085;28;20173;-53
2024/01/13 01:37:01;;;;;;;17.27;13.00;;;;;;;;;;5022469;28;20202;-53
2024/01/13 01:39:27;;;;;;;19.37;14.03;;;;;;;;;;5020022;28;20650;-53
2024/01/13 01:41:53;;;;;;;16.07;12.80;;;;;;;;;;5025705;28;20248;-53
2024/01/13 01:44:19;;;;;;;17.77;13.37;;;;;;;;;;5020936;28;20622;-53
2024/01/13 01:46:46;;;;;;;18.63;14.10;;;;;;;;;;5015701;28;20173;-53
2024/01/13 01:49:13;;;;;;;18.07;12.57;;;;;;;;;;5020369;28;20224;-53
2024/01/13 01:51:40;;;;;;;18.07;13.53;;;;;;;;;;5026420;28;20630;-53
2024/01/13 01:54:06;;;;;;;17.00;13.00;;;;;;;;;;5023405;28;20182;-53
2024/01/13 01:56:34;;;;;;;17.83;12.60;;;;;;;;;;5012964;28;20281;-53
2024/01/13 01:59:01;;;;;;;18.83;13.53;;;;;;;;;;5020007;28;20441;-53
2024/01/13 02:01:30;;;;;;;16.90;12.53;;;;;;;;;;5017758;28;20181;-53
2024/01/13 02:03:56;;;;;;;19.90;13.33;;;;;;;;;;5018168;28;20174;-53
2024/01/13 02:06:22;;;;;;;17.67;12.73;;;;;;;;;;5025209;28;20912;-54
2024/01/13 02:08:48;;;;;;;16.50;13.07;;;;;;;;;;5008938;28;20281;-58
2024/01/13 02:11:14;;;;;;;16.13;12.50;;;;;;;;;;5022324;28;20630;-57
2024/01/13 02:13:40;;;;;;;15.37;12.20;;;;;;;;;;5025289;28;20178;-57
2024/01/13 02:16:08;;;;;;;18.37;13.63;;;;;;;;;;5018435;28;20209;-57
2024/01/13 02:18:34;;;;;;;18.00;13.43;;;;;;;;;;5018128;28;20189;-57
2024/01/13 02:21:00;;;;;;;17.33;13.30;;;;;;;;;;5016565;28;20194;-56
2024/01/13 02:23:26;;;;;;;16.97;12.17;;;;;;;;;;5022044;28;20208;-54
2024/01/13 02:25:52;;;;;;;17.80;12.67;;;;;;;;;;5018065;28;20173;-57
2024/01/13 02:28:18;;;;;;;18.37;13.77;;;;;;;;;;5023405;28;20193;-57
2024/01/13 02:30:44;;;;;;;17.53;12.83;;;;;;;;;;5018984;28;20677;-57
2024/01/13 02:33:10;;;;;;;17.10;13.03;;;;;;;;;;5020512;28;20487;-57
2024/01/13 02:35:36;;;;;;;17.83;13.27;;;;;;;;;;5014294;28;20534;-57
2024/01/13 02:38:02;;;;;;;17.07;12.70;;;;;;;;;;5019539;28;20170;-57
2024/01/13 02:40:28;;;;;;;19.23;14.17;;;;;;;;;;5023761;28;20659;-57
2024/01/13 02:42:54;;;;;;;14.80;12.77;;;;;;;;;;5027287;28;20198;-57
2024/01/13 02:45:20;;;;;;;19.27;13.20;;;;;;;;;;5017628;28;20221;-57
2024/01/13 02:47:49;;;;;;;17.77;11.80;;;;;;;;;;5011894;28;20198;-57
2024/01/13 02:50:16;;;;;;;15.73;11.17;;;;;;;;;;5024185;28;20660;-57
2024/01/13 02:52:44;;;;;;;18.13;12.97;;;;;;;;;;5022489;28;20181;-57
2024/01/13 02:55:10;;;;;;;17.00;12.77;;;;;;;;;;5012833;28;20206;-55
2024/01/13 02:57:36;;;;;;;15.40;11.67;;;;;;;;;;5022905;28;20215;-56
2024/01/13 03:00:04;;;;;;;22.20;13.10;;;;;;;;;;5017206;28;20653;-57
2024/01/13 03:02:30;;;;;;;18.63;14.03;;;;;;;;;;5017430;28;20314;-57
2024/01/13 03:04:56;;;;;;;16.83;12.47;;;;;;;;;;5013161;28;20170;-57
2024/01/13 03:07:22;;;;;;;17.43;13.20;;;;;;;;;;5014415;28;20186;-57
2024/01/13 03:09:48;;;;;;;18.67;14.00;;;;;;;;;;5017488;28;20261;-57
2024/01/13 03:12:14;;;;;;;16.23;12.10;;;;;;;;;;5024681;28;20624;-57
2024/01/13 03:14:40;;;;;;;16.57;12.90;;;;;;;;;;5017486;28;20189;-56
2024/01/13 03:17:06;;;;;;;19.33;13.40;;;;;;;;;;5016067;28;20252;-58
2024/01/13 03:19:32;;;;;;;18.00;12.83;;;;;;;;;;5017578;28;20190;-52
2024/01/13 03:21:58;;;;;;;16.53;12.57;;;;;;;;;;5015850;28;20178;-52
2024/01/13 03:24:24;;;;;;;17.83;13.63;;;;;;;;;;5023766;28;20178;-52
2024/01/13 03:26:50;;;;;;;17.30;13.37;;;;;;;;;;5021776;28;20265;-51
2024/01/13 03:29:16;;;;;;;16.20;13.17;;;;;;;;;;5022085;28;20228;-51
2024/01/13 03:31:42;;;;;;;21.47;13.23;;;;;;;;;;5014056;28;20182;-51
2024/01/13 03:34:08;;;;;;;18.87;14.57;;;;;;;;;;5023664;28;20177;-52
2024/01/13 03:36:34;;;;;;;17.03;12.97;;;;;;;;;;5017035;28;20616;-51
2024/01/13 03:39:00;;;;;;;19.30;13.80;;;;;;;;;;5019526;28;20213;-51
2024/01/13 03:41:26;;;;;;;21.80;13.87;;;;;;;;;;5020684;28;20217;-50
2024/01/13 03:43:52;;;;;;;20.57;12.87;;;;;;;;;;5019372;28;20214;-52
2024/01/13 03:46:18;;;;;;;17.60;13.87;;;;;;;;;;5023869;28;20186;-51
2024/01/13 03:48:45;;;;;;;16.97;12.83;;;;;;;;;;5017889;28;20239;-53
2024/01/13 03:51:12;;;;;;;22.93;13.60;;;;;;;;;;5016262;28;20174;-50
2024/01/13 03:53:38;;;;;;;19.70;14.60;;;;;;;;;;5016973;28;20260;-52
2024/01/13 03:56:04;;;;;;;20.77;13.90;;;;;;;;;;5019153;28;20268;-50
2024/01/13 03:58:30;;;;;;;17.43;14.17;;;;;;;;;;5031432;28;20713;-51
2024/01/13 04:00:57;;;;;;;16.57;12.40;;;;;;;;;;5029155;28;20205;-51
2024/01/13 04:03:23;;;;;;;18.10;13.47;;;;;;;;;;5019965;28;20174;-53
2024/01/13 04:05:49;;;;;;;17.93;12.97;;;;;;;;;;5023105;28;20186;-52
2024/01/13 04:08:15;;;;;;;20.07;14.50;;;;;;;;;;5029523;28;20216;-53
2024/01/13 04:10:42;;;;;;;17.43;13.47;;;;;;;;;;5020433;28;20181;-53
2024/01/13 04:13:11;;;;;;;18.03;13.03;;;;;;;;;;5029810;28;20553;-51
2024/01/13 04:15:37;;;;;;;17.97;12.93;;;;;;;;;;5019486;28;20182;-52
2024/01/13 04:18:03;;;;;;;17.43;12.70;;;;;;;;;;5019913;28;20529;-52
2024/01/13 04:20:29;;;;;;;16.77;12.47;;;;;;;;;;5020686;28;20260;-52
2024/01/13 04:22:55;;;;;;;16.20;12.70;;;;;;;;;;5023945;28;20210;-52
2024/01/13 04:25:21;;;;;;;18.47;13.37;;;;;;;;;;5016917;28;20534;-52
2024/01/13 04:27:48;;;;;;;16.87;12.67;;;;;;;;;;5024015;28;20540;-52
2024/01/13 04:30:14;;;;;;;23.73;13.27;;;;;;;;;;5027201;28;20185;-54
2024/01/13 04:32:42;;;;;;;16.50;11.80;;;;;;;;;;5030174;28;20182;-53
2024/01/13 04:35:08;;;;;;;15.37;12.10;;;;;;;;;;5020161;28;20240;-54
2024/01/13 04:37:34;;;;;;;20.10;13.87;;;;;;;;;;5014838;28;20208;-54
2024/01/13 04:40:00;;;;;;;17.30;12.63;;;;;;;;;;5021647;28;20169;-54
2024/01/13 04:42:26;;;;;;;19.10;13.17;;;;;;;;;;5022440;28;20208;-53
2024/01/13 04:44:52;;;;;;;18.30;12.37;;;;;;;;;;5020191;28;20220;-53
2024/01/13 04:47:18;;;;;;;17.17;12.37;;;;;;;;;;5012093;28;20186;-54
2024/01/13 04:49:44;;;;;;;17.37;12.33;;;;;;;;;;5024281;28;20233;-53
2024/01/13 04:52:11;;;;;;;17.17;13.30;;;;;;;;;;5019984;28;20182;-54
2024/01/13 04:54:37;;;;;;;16.13;12.10;;;;;;;;;;5022769;28;20193;-53
2024/01/13 04:57:03;;;;;;;20.87;12.40;;;;;;;;;;5023154;28;20200;-53
2024/01/13 04:59:29;;;;;;;16.67;12.33;;;;;;;;;;5024568;28;20220;-53
2024/01/13 05:01:55;;;;;;;15.03;11.60;;;;;;;;;;5018762;28;20648;-53
2024/01/13 05:04:21;;;;;;;17.97;12.57;;;;;;;;;;5018901;28;20190;-53
2024/01/13 05:06:47;;;;;;;16.83;13.03;;;;;;;;;;5025732;28;20251;-54
2024/01/13 05:09:13;;;;;;;16.93;11.97;;;;;;;;;;5027040;28;20166;-53
2024/01/13 05:11:39;;;;;;;16.77;11.73;;;;;;;;;;5024295;28;20189;-53
2024/01/13 05:14:05;;;;;;;17.90;11.40;;;;;;;;;;5017422;28;20175;-53
2024/01/13 05:16:31;;;;;;;15.27;11.97;;;;;;;;;;5017967;28;20202;-54
2024/01/13 05:18:57;;;;;;;17.43;12.13;;;;;;;;;;5013254;28;20189;-53
2024/01/13 05:21:23;;;;;;;14.40;12.03;;;;;;;;;;5023315;28;20179;-53
2024/01/13 05:23:49;;;;;;;18.20;12.17;;;;;;;;;;5018598;28;20252;-53
2024/01/13 05:26:15;;;;;;;14.20;11.87;;;;;;;;;;5018049;28;21343;-54
2024/01/13 05:28:41;;;;;;;16.93;12.03;;;;;;;;;;5017290;28;20183;-54
2024/01/13 05:31:07;;;;;;;16.63;12.10;;;;;;;;;;5022657;28;20243;-53
2024/01/13 05:33:33;;;;;;;16.87;11.87;;;;;;;;;;5028468;28;20724;-53
2024/01/13 05:35:59;;;;;;;19.20;12.27;;;;;;;;;;5023805;28;20217;-53
2024/01/13 05:38:26;;;;;;;18.17;12.17;;;;;;;;;;5012470;28;20241;-54
2024/01/13 05:40:52;;;;;;;13.43;10.50;;;;;;;;;;5019623;28;20224;-57
2024/01/13 05:43:18;;;;;;;16.87;11.67;;;;;;;;;;5025957;28;20205;-56
2024/01/13 05:45:44;;;;;;;16.53;11.97;;;;;;;;;;5020923;28;20231;-57
2024/01/13 05:48:10;;;;;;;15.80;11.07;;;;;;;;;;5019328;28;20217;-56
2024/01/13 05:50:36;;;;;;;15.67;11.13;;;;;;;;;;5021967;28;20458;-57
2024/01/13 05:53:02;;;;;;;14.13;10.97;;;;;;;;;;5025684;28;20167;-58
2024/01/13 05:55:28;;;;;;;15.67;11.20;;;;;;;;;;5024770;28;20200;-56
2024/01/13 05:57:55;;;;;;;14.47;12.00;;;;;;;;;;5031400;28;20220;-57
2024/01/13 06:00:21;;;;;;;16.63;11.43;;;;;;;;;;5022396;28;20207;-57
2024/01/13 06:02:47;;;;;;;13.57;10.17;;;;;;;;;;5032169;28;20226;-58
2024/01/13 06:05:13;;;;;;;14.07;11.40;;;;;;;;;;5018672;28;20182;-57
2024/01/13 06:07:39;;;;;;;13.90;11.03;;;;;;;;;;5027252;28;20544;-57
2024/01/13 06:10:05;;;;;;;16.73;10.70;;;;;;;;;;5018864;28;20181;-57
2024/01/13 06:12:31;;;;;;;12.50;10.17;;;;;;;;;;5027270;28;20275;-57
2024/01/13 06:14:57;;;;;;;13.77;10.87;;;;;;;;;;5021473;28;20580;-57
2024/01/13 06:17:23;;;;;;;14.53;10.73;;;;;;;;;;5027035;28;20295;-55
2024/01/13 06:19:49;;;;;;;17.43;11.53;;;;;;;;;;5022309;28;20353;-57
2024/01/13 06:22:15;;;;;;;15.43;11.60;;;;;;;;;;5021166;28;20178;-57
2024/01/13 06:24:41;;;;;;;15.57;11.17;;;;;;;;;;5014463;28;20384;-57
2024/01/13 06:27:08;;;;;;;14.80;10.80;;;;;;;;;;5024618;28;20189;-57
2024/01/13 06:29:34;;;;;;;14.63;11.10;;;;;;;;;;5026838;28;20186;-57
2024/01/13 06:32:00;;;;;;;15.53;11.07;;;;;;;;;;5020645;28;20643;-57
2024/01/13 06:34:26;;;;;;;12.97;10.43;;;;;;;;;;5015089;28;20182;-54
2024/01/13 06:36:52;;;;;;;14.90;10.30;;;;;;;;;;5011648;28;20677;-57
2024/01/13 06:39:18;;;;;;;14.90;10.63;;;;;;;;;;5021701;28;20171;-57
2024/01/13 06:41:44;;;;;;;14.97;10.60;;;;;;;;;;5026449;28;20201;-57
2024/01/13 06:44:10;;;;;;;12.30;10.07;;;;;;;;;;5026399;28;20304;-56
2024/01/13 06:46:36;;;;;;;12.80;10.40;;;;;;;;;;5012100;28;20551;-57
2024/01/13 06:49:02;;;;;;;13.63;9.87;;;;;;;;;;5011832;28;20186;-57
2024/01/13 06:51:28;;;;;;;11.57;9.20;;;;;;;;;;5023924;28;20185;-57
2024/01/13 06:53:54;;;;;;;13.37;9.77;;;;;;;;;;5020754;28;20213;-58
2024/01/13 06:56:20;;;;;;;13.83;10.33;;;;;;;;;;5014068;28;20300;-57
2024/01/13 06:58:46;;;;;;;13.53;10.37;;;;;;;;;;5015243;28;20182;-56
2024/01/13 07:01:16;;;;;;;12.97;10.57;;;;;;;;;;5018942;28;20515;-57
2024/01/13 07:03:42;;;;;;;12.00;9.90;;;;;;;;;;5021528;28;20186;-57
2024/01/13 07:06:08;;;;;;;11.97;10.57;;;;;;;;;;5023051;28;20182;-57
2024/01/13 07:08:34;;;;;;;12.47;9.77;;;;;;;;;;5024613;28;20185;-57
2024/01/13 07:11:00;;;;;;;11.30;9.40;;;;;;;;;;5013855;28;20221;-54
2024/01/13 07:13:26;;;;;;;14.13;10.77;;;;;;;;;;5022313;28;20650;-57
2024/01/13 07:15:53;;;;;;;13.30;10.07;;;;;;;;;;5023975;28;20193;-57
2024/01/13 07:18:20;;;;;;;11.67;9.70;;;;;;;;;;5023259;28;20178;-56
2024/01/13 07:20:46;;;;;;;9.60;8.57;;;;;;;;;;5011384;28;21682;-57
2024/01/13 07:23:12;;;;;;;11.60;9.17;;;;;;;;;;5019757;28;20178;-57
2024/01/13 07:25:38;;;;;;;12.03;9.40;;;;;;;;;;5016574;28;20184;-57
2024/01/13 07:28:04;;;;;;;12.23;10.03;;;;;;;;;;5021241;28;20182;-57
2024/01/13 07:30:30;;;;;;;12.70;9.00;;;;;;;;;;5014293;28;20276;-57
2024/01/13 07:32:56;;;;;;;11.50;9.37;;;;;;;;;;5022056;28;20198;-57
2024/01/13 07:35:22;;;;;;;9.70;8.60;;;;;;;;;;5022371;28;20554;-57
2024/01/13 07:37:48;;;;;;;12.03;9.33;;;;;;;;;;5023276;28;20645;-57
2024/01/13 07:40:17;;;;;;;11.60;9.10;;;;;;;;;;5021124;28;20519;-55
2024/01/13 07:42:43;;;;;;;11.83;8.97;;;;;;;;;;5016702;28;20204;-57
2024/01/13 07:45:09;;;;;;;10.43;9.23;;;;;;;;;;5024647;28;20271;-57
2024/01/13 07:47:35;;;;;;;12.23;8.93;;;;;;;;;;5015759;28;20218;-58
2024/01/13 07:50:03;;;;;;;13.37;9.20;;;;;;;;;;5014690;28;20182;-57
2024/01/13 07:52:29;;;;;;;11.43;9.10;;;;;;;;;;5024427;28;20181;-57
2024/01/13 07:54:55;;;;;;;13.03;10.03;;;;;;;;;;5022125;28;20177;-58
2024/01/13 07:57:21;;;;;;;12.37;9.50;;;;;;;;;;5020549;28;20213;-56
2024/01/13 07:59:47;;;;;;;11.17;9.23;;;;;;;;;;5018808;28;20197;-56
2024/01/13 08:02:15;;;;;;;12.47;10.00;;;;;;;;;;5016472;28;20594;-52
2024/01/13 08:04:43;;;;;;;11.07;8.80;;;;;;;;;;5011057;28;20236;-52
2024/01/13 08:07:09;;;;;;;13.67;9.10;;;;;;;;;;5018194;28;20668;-52
2024/01/13 08:09:35;;;;;;;12.67;10.30;;;;;;;;;;5011305;28;20259;-52
2024/01/13 08:12:01;;;;;;;10.70;8.97;;;;;;;;;;5020309;28;20192;-52
2024/01/13 08:14:27;;;;;;;13.10;9.97;;;;;;;;;;5015939;28;20344;-52
2024/01/13 08:16:53;;;;;;;10.63;9.53;;;;;;;;;;5018507;28;20255;-55
2024/01/13 08:19:19;;;;;;;11.17;9.30;;;;;;;;;;5025949;28;20194;-55
2024/01/13 08:21:46;;;;;;;12.97;10.23;;;;;;;;;;5018687;28;20695;-52
2024/01/13 08:24:12;;;;;;;14.03;10.87;;;;;;;;;;5023672;28;20201;-52
2024/01/13 08:26:38;;;;;;;11.47;9.77;;;;;;;;;;5024547;28;20220;-52
2024/01/13 08:29:04;;;;;;;12.73;10.17;;;;;;;;;;5026551;28;20182;-52
2024/01/13 08:31:30;;;;;;;13.53;10.50;;;;;;;;;;5014770;28;20208;-53
2024/01/13 08:33:56;;;;;;;12.77;10.70;;;;;;;;;;5025519;28;20182;-52
2024/01/13 08:36:22;;;;;;;12.47;10.57;;;;;;;;;;5018975;28;20202;-52
2024/01/13 08:38:48;;;;;;;15.80;11.73;;;;;;;;;;5021054;28;20178;-52
2024/01/13 08:41:14;;;;;;;14.10;11.23;;;;;;;;;;5018898;28;20182;-53
2024/01/13 08:43:40;;;;;;;15.37;11.63;;;;;;;;;;5030495;28;20683;-54
2024/01/13 08:46:07;;;;;;;15.10;11.00;;;;;;;;;;5018969;28;20910;-55
2024/01/13 08:48:36;;;;;;;12.83;10.87;;;;;;;;;;5015332;28;20231;-55
2024/01/13 08:51:02;;;;;;;15.93;11.50;;;;;;;;;;5029922;28;20182;-55
2024/01/13 08:53:28;;;;;;;14.03;10.33;;;;;;;;;;5026695;28;20217;-55
2024/01/13 08:55:54;;;;;;;14.17;11.03;;;;;;;;;;5012323;28;20265;-52
2024/01/13 08:58:20;;;;;;;14.27;11.03;;;;;;;;;;5020671;28;20593;-55
2024/01/13 09:00:46;;;;;;;13.83;10.33;;;;;;;;;;5022086;28;20194;-55
2024/01/13 09:03:12;;;;;;;17.03;11.03;;;;;;;;;;5014541;28;20167;-55
2024/01/13 09:05:39;;;;;;;14.00;11.57;;;;;;;;;;5023708;28;20630;-55
2024/01/13 09:08:05;;;;;;;14.90;11.73;;;;;;;;;;5022808;28;20174;-52
2024/01/13 09:10:31;;;;;;;14.90;11.50;;;;;;;;;;5020202;28;20693;-55
2024/01/13 09:12:57;;;;;;;14.03;11.37;;;;;;;;;;5021525;28;20710;-53
2024/01/13 09:15:23;;;;;;;13.20;10.67;;;;;;;;;;5027582;28;20182;-53
2024/01/13 09:17:49;;;;;;;14.10;11.43;;;;;;;;;;5028712;28;20205;-53
2024/01/13 09:20:15;;;;;;;13.83;11.10;;;;;;;;;;5027609;28;20190;-53
2024/01/13 09:22:41;;;;;;;13.40;11.43;;;;;;;;;;5022959;28;20193;-53
2024/01/13 09:25:08;;;;;;;14.73;10.33;;;;;;;;;;5028006;28;20174;-54
2024/01/13 09:27:34;;;;;;;14.47;11.67;;;;;;;;;;5026012;28;20268;-51
2024/01/13 09:30:00;;;;;;;13.10;10.67;;;;;;;;;;5016387;28;20507;-51
2024/01/13 09:32:26;;;;;;;15.40;11.87;;;;;;;;;;5020571;28;20194;-52
2024/01/13 09:34:52;;;;;;;12.27;10.90;;;;;;;;;;5019226;28;20170;-51
2024/01/13 09:37:18;;;;;;;15.20;11.33;;;;;;;;;;5017009;28;20681;-51
2024/01/13 09:39:44;;;;;;;13.43;10.50;;;;;;;;;;5021820;28;20642;-51
2024/01/13 09:42:13;;;;;;;12.57;10.23;;;;;;;;;;5024927;28;20205;-50
2024/01/13 09:44:39;;;;;;;13.80;11.13;;;;;;;;;;5015951;28;20222;-51
2024/01/13 09:47:05;;;;;;;14.57;11.50;;;;;;;;;;5012858;28;20595;-53
2024/01/13 09:49:31;;;;;;;13.80;11.60;;;;;;;;;;5021135;28;20277;-51
2024/01/13 09:51:58;;;;;;;13.43;10.67;;;;;;;;;;5021940;28;20309;-52
2024/01/13 09:54:25;;;;;;;14.80;11.83;;;;;;;;;;5013521;28;20183;-53
2024/01/13 09:56:51;;;;;;;14.43;12.10;;;;;;;;;;5011198;28;20453;-51
2024/01/13 09:59:22;;;;;;;13.83;11.57;;;;;;;;;;5014096;28;20618;-51
2024/01/13 10:01:48;;;;;;;14.47;10.30;;;;;;;;;;5011489;28;20680;-51
2024/01/13 10:04:14;;;;;;;13.57;10.83;;;;;;;;;;5019933;28;20625;-51
2024/01/13 10:06:41;;;;;;;13.67;10.90;;;;;;;;;;5028304;28;20641;-51
2024/01/13 10:09:10;;;;;;;13.20;10.63;;;;;;;;;;5030573;28;20174;-50
2024/01/13 10:11:37;;;;;;;15.07;10.93;;;;;;;;;;5029508;28;20462;-51
2024/01/13 10:14:07;;;;;;;12.77;10.73;;;;;;;;;;5025254;28;20520;-51
2024/01/13 10:16:34;;;;;;;13.90;10.50;;;;;;;;;;5019420;28;20213;-52
2024/01/13 10:19:05;;;;;;;13.70;10.73;;;;;;;;;;5016804;28;20245;-51
2024/01/13 10:21:32;;;;;;;12.60;10.23;;;;;;;;;;5014238;28;20527;-53
2024/01/13 10:23:59;;;;;;;12.83;10.33;;;;;;;;;;5035167;28;20167;-53
2024/01/13 10:26:25;;;;;;;12.97;10.40;;;;;;;;;;5028517;28;20174;-53
2024/01/13 10:28:51;;;;;;;11.33;10.00;;;;;;;;;;5015370;28;20261;-54
2024/01/13 10:31:21;;;;;;;13.53;9.80;;;;;;;;;;5022919;28;20170;-53
2024/01/13 10:33:48;;;;;;;12.80;10.27;;;;;;;;;;5024765;28;20271;-53
2024/01/13 10:36:20;;;;;;;11.67;9.90;;;;;;;;;;5022793;28;20308;-53
2024/01/13 10:41:51;;;;;;;12.33;9.63;;;;;;;;;;5027829;28;20748;-53
2024/01/13 10:44:18;;;;;;;12.77;9.70;;;;;;;;;;5018960;28;20723;-53
2024/01/13 10:46:51;;;;;;;11.97;10.13;;;;;;;;;;5015526;28;20248;-55
2024/01/13 10:49:36;;;;;;;10.87;9.23;;;;;;;;;;5017183;28;20177;-53
2024/01/13 10:52:02;;;;;;;10.47;8.67;;;;;;;;;;5012380;28;20940;-53
2024/01/13 10:54:29;;;;;;;11.40;9.40;;;;;;;;;;5032303;28;20199;-53
2024/01/13 10:56:55;;;;;;;11.43;9.40;;;;;;;;;;5016648;28;20236;-54
2024/01/13 10:59:22;;;;;;;12.20;9.43;;;;;;;;;;5025963;28;20166;-53
2024/01/13 11:01:49;;;;;;;11.73;9.37;;;;;;;;;;5025283;28;20174;-53
2024/01/13 11:04:15;;;;;;;11.17;8.30;;;;;;;;;;5018803;28;20171;-53
2024/01/13 11:06:41;;;;;;;12.17;9.13;;;;;;;;;;5027665;28;20185;-53
2024/01/13 11:09:09;;;;;;;10.93;9.00;;;;;;;;;;5015525;28;20177;-53
2024/01/13 11:11:39;;;;;;;11.37;9.20;;;;;;;;;;5017800;28;20214;-53
2024/01/13 11:14:13;;;;;;;12.70;9.40;;;;;;;;;;5025388;28;20192;-53
2024/01/13 11:16:40;;;;;;;11.63;9.53;;;;;;;;;;5024269;28;20190;-53
2024/01/13 11:19:07;;;;;;;11.13;9.70;;;;;;;;;;5029732;28;20167;-53
2024/01/13 11:21:33;;;;;;;9.93;8.83;;;;;;;;;;5022511;28;20182;-53
2024/01/13 11:24:01;;;;;;;10.27;8.73;;;;;;;;;;5012298;28;20178;-53
2024/01/13 11:26:53;;;;;;;9.53;8.40;;;;;;;;;;5019747;28;20174;-53
2024/01/13 11:29:21;;;;;;;12.63;9.07;;;;;;;;;;5008191;28;20669;-53
2024/01/13 11:31:47;;;;;;;13.50;8.90;;;;;;;;;;5026873;28;20181;-53
2024/01/13 11:34:17;;;;;;;10.20;8.70;;;;;;;;;;5013918;28;20179;-51
2024/01/13 11:36:52;;;;;;;11.57;8.70;;;;;;;;;;5018761;28;20668;-50
2024/01/13 11:39:19;;;;;;;10.07;8.43;;;;;;;;;;5016808;28;20164;-51
2024/01/13 11:41:46;;;;;;;11.67;7.80;;;;;;;;;;5015972;28;20198;-51
2024/01/13 11:44:18;;;;;;;9.50;7.70;;;;;;;;;;5018314;28;20229;-51
2024/01/13 11:46:56;;;;;;;9.53;8.33;;;;;;;;;;5020912;28;20645;-51
2024/01/13 11:49:29;;;;;;;11.17;8.57;;;;;;;;;;5024519;28;20219;-51
2024/01/13 11:51:59;;;;;;;9.33;7.50;;;;;;;;;;5020429;28;20178;-51
2024/01/13 11:54:25;;;;;;;10.33;8.70;;;;;;;;;;5021671;28;20175;-52
2024/01/13 11:56:51;;;;;;;8.27;7.37;;;;;;;;;;5010026;28;20244;-51
2024/01/13 11:59:18;;;;;;;9.53;7.77;;;;;;;;;;5016148;28;20184;-51
2024/01/13 12:01:44;;;;;;;9.63;8.30;;;;;;;;;;5016168;28;20661;-51
2024/01/13 12:04:10;;;;;;;10.47;8.43;;;;;;;;;;5011274;28;20525;-51
2024/01/13 12:06:36;;;;;;;9.10;7.47;;;;;;;;;;5013269;28;20173;-50
2024/01/13 12:09:03;;;;;;;10.03;7.97;;;;;;;;;;5029072;28;20625;-50
2024/01/13 12:11:29;;;;;;;10.13;8.03;;;;;;;;;;5026678;28;20192;-52
2024/01/13 12:13:55;;;;;;;10.17;7.50;;;;;;;;;;5017253;28;20286;-52
2024/01/13 12:16:21;;;;;;;10.17;8.60;;;;;;;;;;5024179;28;20264;-51
2024/01/13 12:18:47;;;;;;;10.93;8.37;;;;;;;;;;5014240;28;20261;-51
2024/01/13 12:21:14;;;;;;;9.07;7.87;;;;;;;;;;5029145;28;20177;-52
2024/01/13 12:23:43;;;;;;;10.70;8.30;;;;;;;;;;5017113;28;20250;-51
2024/01/13 12:26:09;;;;;;;11.90;7.70;;;;;;;;;;5025749;28;20195;-51
2024/01/13 12:28:35;;;;;;;9.67;8.57;;;;;;;;;;5014647;28;20202;-53
2024/01/13 12:31:05;;;;;;;9.77;8.00;;;;;;;;;;5017768;28;20171;-52
2024/01/13 12:33:32;;;;;;;10.53;8.37;;;;;;;;;;5028450;28;20220;-52
2024/01/13 12:35:59;;;;;;;9.90;8.37;;;;;;;;;;5031056;28;20236;-51
2024/01/13 12:38:26;;;;;;;10.13;8.00;;;;;;;;;;5029578;28;20244;-51
2024/01/13 12:40:52;;;;;;;10.50;8.63;;;;;;;;;;5019716;28;20285;-51
2024/01/13 12:43:19;;;;;;;12.97;8.57;;;;;;;;;;5028062;28;20276;-53
2024/01/13 12:45:45;;;;;;;10.33;8.63;;;;;;;;;;5025019;28;20581;-53
2024/01/13 12:48:11;;;;;;;10.00;8.77;;;;;;;;;;5026784;28;20181;-53
2024/01/13 12:50:37;;;;;;;11.67;9.23;;;;;;;;;;5016134;28;20640;-53
2024/01/13 12:53:03;;;;;;;10.50;8.27;;;;;;;;;;5028273;28;20178;-53
2024/01/13 12:55:29;;;;;;;9.50;8.00;;;;;;;;;;5019266;28;20266;-53
2024/01/13 12:57:55;;;;;;;11.20;8.57;;;;;;;;;;5017615;28;20220;-53
2024/01/13 13:00:21;;;;;;;9.53;8.47;;;;;;;;;;5019791;28;20603;-53
2024/01/13 13:02:51;;;;;;;11.07;8.67;;;;;;;;;;5026035;28;20174;-53
2024/01/13 13:05:17;;;;;;;9.60;8.17;;;;;;;;;;5032455;28;20186;-53
2024/01/13 13:07:43;;;;;;;12.27;8.97;;;;;;;;;;5023556;28;20187;-52
2024/01/13 13:10:10;;;;;;;9.60;7.90;;;;;;;;;;5013397;28;20193;-53
2024/01/13 13:12:37;;;;;;;10.30;9.20;;;;;;;;;;5021570;28;20201;-53
2024/01/13 13:15:03;;;;;;;11.30;8.87;;;;;;;;;;5021305;28;20197;-53
2024/01/13 13:17:29;;;;;;;9.37;8.37;;;;;;;;;;5021598;28;20254;-53
2024/01/13 13:19:55;;;;;;;10.00;8.63;;;;;;;;;;5029064;28;20206;-53
2024/01/13 13:22:21;;;;;;;10.33;8.13;;;;;;;;;;5023558;28;20214;-53
2024/01/13 13:24:47;;;;;;;11.33;9.10;;;;;;;;;;5020767;28;20572;-53
2024/01/13 13:27:13;;;;;;;10.53;8.87;;;;;;;;;;5022004;28;20273;-53
2024/01/13 13:29:40;;;;;;;11.37;9.27;;;;;;;;;;5024873;28;20235;-53
2024/01/13 13:32:06;;;;;;;11.20;9.57;;;;;;;;;;5022555;28;20271;-53
2024/01/13 13:34:33;;;;;;;11.10;9.80;;;;;;;;;;5024788;28;20196;-53
2024/01/13 13:36:59;;;;;;;11.70;9.80;;;;;;;;;;5029165;28;20237;-53
2024/01/13 13:39:26;;;;;;;13.17;9.97;;;;;;;;;;5025290;28;20205;-53
2024/01/13 13:41:52;;;;;;;11.73;10.10;;;;;;;;;;5018524;28;20284;-53
2024/01/13 13:44:18;;;;;;;12.67;9.93;;;;;;;;;;5026396;28;20629;-53
2024/01/13 13:46:44;;;;;;;12.27;9.87;;;;;;;;;;5025240;28;20190;-53
2024/01/13 13:49:11;;;;;;;13.03;11.07;;;;;;;;;;5022095;28;20183;-53
2024/01/13 13:51:37;;;;;;;11.40;9.97;;;;;;;;;;5023424;28;20586;-53
2024/01/13 13:54:03;;;;;;;12.90;10.93;;;;;;;;;;5017679;28;20178;-52
2024/01/13 13:56:29;;;;;;;12.33;11.03;;;;;;;;;;5021889;28;20692;-51
2024/01/13 13:58:55;;;;;;;16.80;11.47;;;;;;;;;;5027635;28;20688;-51
2024/01/13 14:01:21;;;;;;;10.77;9.30;;;;;;;;;;5028426;28;20182;-52
2024/01/13 14:03:47;;;;;;;12.80;10.93;;;;;;;;;;5025615;28;20511;-52
2024/01/13 14:06:13;;;;;;;12.80;10.90;;;;;;;;;;5028988;28;20186;-50
2024/01/13 14:08:40;;;;;;;15.20;11.83;;;;;;;;;;5024463;28;20189;-51
2024/01/13 14:11:07;;;;;;;11.50;10.30;;;;;;;;;;5029031;28;20681;-50
2024/01/13 14:13:33;;;;;;;12.37;10.77;;;;;;;;;;5028261;28;20178;-52
2024/01/13 14:15:59;;;;;;;14.20;11.67;;;;;;;;;;5021570;28;20573;-53
2024/01/13 14:18:32;;;;;;;12.90;10.63;;;;;;;;;;5024464;28;20178;-50
2024/01/13 14:20:58;;;;;;;13.83;10.60;;;;;;;;;;5025782;28;20188;-51